Time;durP1;ratioP1;P1;durP2;ratioP2;P2;SDS_P1;SDS_P2;PMS_P1;PMS_P2;Temp;Humidity;BMP_temperature;BMP_pressure;BME280_temperature;BME280_humidity;BME280_pressure;Samples;Min_cycle;Max_cycle;Signal;HPM_P1;HPM_P2
2022/06/18 00:01:36;;;;;;;4.67;3.10;;;19.00;99.90;;;;;;4934101;29;20238;-45
2022/06/18 00:04:06;;;;;;;3.50;3.20;;;19.00;99.90;;;;;;4916105;29;20255;-44
2022/06/18 00:06:37;;;;;;;3.93;3.00;;;18.90;99.90;;;;;;4916525;29;20326;-44
2022/06/18 00:09:06;;;;;;;4.73;3.17;;;18.90;99.90;;;;;;4916719;29;20668;-44
2022/06/18 00:14:21;;;;;;;3.20;2.87;;;18.90;99.90;;;;;;4924466;29;20244;-44
2022/06/18 00:16:50;;;;;;;3.63;3.13;;;18.90;99.90;;;;;;4921208;29;20243;-44
2022/06/18 00:19:19;;;;;;;5.80;3.50;;;18.90;99.90;;;;;;4916536;29;20615;-45
2022/06/18 00:21:47;;;;;;;5.30;3.10;;;18.80;99.90;;;;;;4919381;29;20235;-44
2022/06/18 00:24:19;;;;;;;4.37;3.20;;;18.80;99.90;;;;;;4919820;29;20241;-44
2022/06/18 00:26:47;;;;;;;4.00;3.17;;;18.80;99.90;;;;;;4919804;29;20295;-44
2022/06/18 00:29:18;;;;;;;4.70;3.37;;;18.80;99.90;;;;;;4919391;29;20251;-44
2022/06/18 00:31:47;;;;;;;5.90;3.50;;;18.80;99.90;;;;;;4902346;29;20248;-45
2022/06/18 00:34:17;;;;;;;4.80;3.00;;;18.70;99.90;;;;;;4919603;29;20602;-45
2022/06/18 00:36:45;;;;;;;4.40;3.30;;;18.70;99.90;;;;;;4912015;29;20278;-44
2022/06/18 00:39:15;;;;;;;3.97;3.10;;;18.70;99.90;;;;;;4919567;29;20228;-44
2022/06/18 00:41:45;;;;;;;3.90;3.00;;;18.60;99.90;;;;;;4919472;29;20230;-45
2022/06/18 00:44:24;;;;;;;4.97;3.37;;;18.60;99.90;;;;;;4919027;29;20242;-44
2022/06/18 00:47:04;;;;;;;4.00;3.33;;;18.60;99.90;;;;;;4912929;29;20289;-43
2022/06/18 00:49:39;;;;;;;3.00;2.70;;;18.60;99.90;;;;;;4902395;29;20235;-45
2022/06/18 00:52:16;;;;;;;3.67;2.90;;;18.50;99.90;;;;;;4919193;29;20233;-44
2022/06/18 00:54:49;;;;;;;3.93;3.27;;;18.50;99.90;;;;;;4919094;29;20238;-43
2022/06/18 00:57:28;;;;;;;3.77;2.97;;;18.50;99.90;;;;;;4919148;29;20277;-45
2022/06/18 01:00:04;;;;;;;3.97;3.13;;;18.50;99.90;;;;;;4902044;29;20246;-43
2022/06/18 01:02:35;;;;;;;4.63;3.20;;;18.50;99.90;;;;;;4918425;29;20250;-43
2022/06/18 01:05:18;;;;;;;4.57;3.33;;;18.40;99.90;;;;;;4901852;29;20337;-45
2022/06/18 01:07:50;;;;;;;5.07;3.10;;;18.40;99.90;;;;;;4901911;29;20235;-44
2022/06/18 01:10:25;;;;;;;3.90;3.30;;;18.40;99.90;;;;;;4901952;29;20298;-44
2022/06/18 01:12:54;;;;;;;3.47;3.00;;;18.40;99.90;;;;;;4895703;29;20711;-44
2022/06/18 01:15:23;;;;;;;3.73;3.17;;;18.40;99.90;;;;;;4935434;29;20273;-44
2022/06/18 01:17:54;;;;;;;3.67;3.10;;;18.40;99.90;;;;;;4920671;29;20395;-45
2022/06/18 01:20:26;;;;;;;3.50;3.03;;;18.40;99.90;;;;;;4936649;29;20255;-45
2022/06/18 01:23:02;;;;;;;4.10;3.30;;;18.40;99.90;;;;;;4918736;29;20670;-44
2022/06/18 01:25:32;;;;;;;3.57;3.00;;;18.40;99.90;;;;;;4901832;29;20226;-44
2022/06/18 01:28:01;;;;;;;5.53;3.57;;;18.30;99.90;;;;;;4901538;29;20592;-45
2022/06/18 01:30:35;;;;;;;3.80;3.07;;;18.30;99.90;;;;;;4901489;29;20769;-44
2022/06/18 01:33:08;;;;;;;3.30;3.00;;;18.30;99.90;;;;;;4900957;29;20291;-43
2022/06/18 01:35:49;;;;;;;4.23;2.90;;;18.30;99.90;;;;;;4901554;29;20237;-43
2022/06/18 01:38:24;;;;;;;3.73;3.33;;;18.30;99.90;;;;;;4901589;29;20658;-44
2022/06/18 01:41:49;;;;;;;5.23;3.10;;;18.30;99.90;;;;;;4901237;29;20246;-43
2022/06/18 01:43:49;;;;;;;4.67;3.10;;;18.30;99.90;;;;;;4898324;29;20226;-44
2022/06/18 01:46:17;;;;;;;4.30;3.00;;;18.30;99.90;;;;;;4920214;29;20594;-44
2022/06/18 01:48:48;;;;;;;4.87;3.10;;;18.30;99.90;;;;;;4920327;29;20238;-44
2022/06/18 01:51:23;;;;;;;5.20;3.13;;;18.30;99.90;;;;;;4910082;29;20230;-45
2022/06/18 01:53:57;;;;;;;5.37;3.50;;;18.30;99.90;;;;;;4901575;29;20587;-44
2022/06/18 01:56:30;;;;;;;3.83;3.20;;;18.30;99.90;;;;;;4900964;29;20665;-45
2022/06/18 01:59:06;;;;;;;3.77;3.47;;;18.20;99.90;;;;;;4900925;29;20227;-45
2022/06/18 02:01:40;;;;;;;5.23;3.00;;;18.20;99.90;;;;;;4900533;29;20293;-44
2022/06/18 02:04:09;;;;;;;3.33;3.03;;;18.30;99.90;;;;;;4900791;29;20697;-45
2022/06/18 02:06:39;;;;;;;3.37;3.07;;;18.20;99.90;;;;;;4900973;29;20594;-45
2022/06/18 02:09:11;;;;;;;3.70;3.40;;;18.20;99.90;;;;;;4900964;29;20640;-44
2022/06/18 02:11:41;;;;;;;3.13;2.87;;;18.20;99.90;;;;;;4918006;29;20238;-45
2022/06/18 02:14:15;;;;;;;3.53;3.23;;;18.20;99.90;;;;;;4925319;29;20746;-44
2022/06/18 02:16:46;;;;;;;3.57;3.27;;;18.20;99.90;;;;;;4931394;29;20631;-45
2022/06/18 02:19:17;;;;;;;3.30;3.00;;;18.20;99.90;;;;;;4900821;29;20353;-44
2022/06/18 02:21:49;;;;;;;4.60;2.97;;;18.20;99.90;;;;;;4917686;29;20690;-44
2022/06/18 02:24:18;;;;;;;4.30;3.53;;;18.20;99.90;;;;;;4900769;29;20253;-44
2022/06/18 02:26:49;;;;;;;3.23;3.00;;;18.20;99.90;;;;;;4917423;29;20228;-44
2022/06/18 02:29:20;;;;;;;3.30;3.00;;;18.20;99.90;;;;;;4917437;29;20582;-43
2022/06/18 02:31:48;;;;;;;4.23;2.93;;;18.10;99.90;;;;;;4900083;29;22482;-44
2022/06/18 02:34:20;;;;;;;4.33;3.37;;;18.10;99.90;;;;;;4900189;29;20236;-44
2022/06/18 02:36:49;;;;;;;4.30;3.30;;;18.10;99.90;;;;;;4917121;29;20642;-44
2022/06/18 02:39:24;;;;;;;4.37;2.87;;;18.10;99.90;;;;;;4900219;29;20231;-43
2022/06/18 02:41:59;;;;;;;3.23;2.80;;;18.10;99.90;;;;;;4916945;29;20237;-44
2022/06/18 02:44:27;;;;;;;4.27;3.20;;;18.10;99.90;;;;;;4926488;29;20273;-43
2022/06/18 02:46:56;;;;;;;3.93;3.23;;;18.10;99.90;;;;;;4919121;29;20230;-43
2022/06/18 02:49:26;;;;;;;3.30;3.00;;;18.10;99.90;;;;;;4902942;29;20278;-44
2022/06/18 02:51:54;;;;;;;3.47;3.17;;;18.10;99.90;;;;;;4917297;29;20657;-43
2022/06/18 02:54:24;;;;;;;3.97;2.90;;;18.10;99.90;;;;;;4900344;29;20230;-45
2022/06/18 02:56:52;;;;;;;4.00;3.03;;;18.10;99.90;;;;;;4901459;29;20733;-43
2022/06/18 02:59:22;;;;;;;3.47;3.17;;;18.10;99.90;;;;;;4908275;29;20249;-44
2022/06/18 03:01:50;;;;;;;3.40;3.10;;;18.10;99.90;;;;;;4897991;29;20710;-45
2022/06/18 03:04:18;;;;;;;4.00;2.90;;;18.10;99.90;;;;;;4916009;29;20251;-44
2022/06/18 03:06:47;;;;;;;3.77;3.40;;;18.10;99.90;;;;;;4899582;29;20733;-44
2022/06/18 03:09:15;;;;;;;4.50;3.27;;;18.00;99.90;;;;;;4916933;29;20233;-44
2022/06/18 03:14:33;;;;;;;5.17;3.33;;;18.10;99.90;;;;;;4899899;29;20608;-44
2022/06/18 03:17:03;;;;;;;3.30;2.80;;;18.10;99.90;;;;;;4899890;29;20643;-44
2022/06/18 03:19:38;;;;;;;3.80;2.93;;;18.10;99.90;;;;;;4899850;29;20574;-43
2022/06/18 03:22:10;;;;;;;4.10;3.10;;;18.10;99.90;;;;;;4899679;29;20255;-46
2022/06/18 03:24:38;;;;;;;4.43;3.30;;;18.20;99.90;;;;;;4916767;29;20226;-44
2022/06/18 03:27:06;;;;;;;5.40;3.20;;;18.10;99.90;;;;;;4896444;29;20262;-45
2022/06/18 03:29:36;;;;;;;4.23;3.60;;;18.10;99.90;;;;;;4915768;29;20723;-44
2022/06/18 03:32:06;;;;;;;4.27;3.20;;;18.20;99.90;;;;;;4916103;29;20246;-44
2022/06/18 03:34:35;;;;;;;3.77;3.37;;;18.10;99.90;;;;;;4899411;29;20754;-45
2022/06/18 03:37:04;;;;;;;3.27;2.90;;;18.20;99.90;;;;;;4916360;29;20235;-45
2022/06/18 03:39:32;;;;;;;3.83;3.10;;;18.20;99.90;;;;;;4915606;29;20266;-44
2022/06/18 03:42:00;;;;;;;4.03;3.33;;;18.20;99.90;;;;;;4898983;29;20227;-45
2022/06/18 03:44:28;;;;;;;3.80;3.33;;;18.20;99.90;;;;;;4916406;29;20281;-44
2022/06/18 03:47:02;;;;;;;3.70;3.30;;;18.30;99.90;;;;;;4899380;29;20240;-45
2022/06/18 03:49:36;;;;;;;5.60;3.50;;;18.30;99.90;;;;;;4902234;29;20242;-44
2022/06/18 03:52:08;;;;;;;4.27;3.60;;;18.30;99.90;;;;;;4914035;29;20234;-44
2022/06/18 03:54:36;;;;;;;5.33;3.33;;;18.40;99.90;;;;;;4900649;29;20245;-45
2022/06/18 03:57:07;;;;;;;3.73;3.13;;;18.40;99.90;;;;;;4903038;29;20258;-44
2022/06/18 03:59:37;;;;;;;4.43;3.47;;;18.40;99.90;;;;;;4888105;29;20647;-43
2022/06/18 04:02:07;;;;;;;3.87;3.07;;;18.50;99.90;;;;;;4903044;29;20336;-44
2022/06/18 04:04:42;;;;;;;4.13;3.40;;;18.50;99.90;;;;;;4931414;29;20746;-44
2022/06/18 04:07:17;;;;;;;6.47;3.43;;;18.60;99.90;;;;;;4920382;29;20226;-44
2022/06/18 04:10:01;;;;;;;5.23;3.33;;;18.70;99.90;;;;;;4922474;29;20236;-44
2022/06/18 04:12:29;;;;;;;4.17;3.87;;;18.70;99.90;;;;;;4937704;29;20233;-43
2022/06/18 04:15:23;;;;;;;4.23;3.83;;;18.80;99.90;;;;;;4938131;29;20234;-44
2022/06/18 04:18:02;;;;;;;4.00;3.50;;;18.80;99.90;;;;;;4953552;29;20234;-44
2022/06/18 04:20:32;;;;;;;4.83;3.60;;;18.90;99.90;;;;;;4937933;29;20264;-45
2022/06/18 04:23:03;;;;;;;4.70;3.50;;;19.00;99.90;;;;;;4937313;29;20229;-45
2022/06/18 04:25:36;;;;;;;3.80;3.50;;;19.10;99.90;;;;;;4937267;29;20226;-45
2022/06/18 04:28:05;;;;;;;5.33;3.80;;;19.20;99.90;;;;;;4953351;28;20883;-45
2022/06/18 04:30:36;;;;;;;5.07;3.87;;;19.30;99.90;;;;;;4952761;29;20282;-45
2022/06/18 04:33:12;;;;;;;5.10;3.47;;;19.40;99.90;;;;;;4950515;29;20236;-44
2022/06/18 04:35:54;;;;;;;4.77;3.73;;;19.50;99.90;;;;;;4956426;28;20229;-43
2022/06/18 04:38:23;;;;;;;3.97;3.50;;;19.70;99.90;;;;;;4956716;28;20242;-45
2022/06/18 04:41:25;;;;;;;5.03;3.70;;;19.80;99.90;;;;;;4955759;28;20245;-44
2022/06/18 04:44:00;;;;;;;3.90;3.47;;;19.90;99.90;;;;;;4961530;28;20781;-44
2022/06/18 04:46:29;;;;;;;3.70;3.30;;;20.00;99.90;;;;;;4956481;28;20262;-44
2022/06/18 04:48:59;;;;;;;5.57;3.40;;;20.20;99.90;;;;;;4956219;29;20239;-44
2022/06/18 04:51:28;;;;;;;5.93;3.80;;;20.20;99.90;;;;;;4956205;29;20308;-44
2022/06/18 04:53:56;;;;;;;3.40;3.10;;;20.30;99.90;;;;;;4955886;29;20236;-44
2022/06/18 04:56:25;;;;;;;4.73;4.00;;;20.40;99.90;;;;;;4956064;28;20230;-44
2022/06/18 04:58:53;;;;;;;5.00;4.13;;;20.40;99.90;;;;;;4957181;28;20230;-45
2022/06/18 05:01:27;;;;;;;6.00;4.17;;;20.50;99.90;;;;;;4955881;29;20229;-44
2022/06/18 05:04:03;;;;;;;3.97;3.63;;;20.60;99.90;;;;;;4956741;29;20245;-46
2022/06/18 05:06:50;;;;;;;5.83;3.73;;;20.70;99.90;;;;;;4957095;28;20309;-44
2022/06/18 05:09:28;;;;;;;4.33;3.80;;;20.90;99.90;;;;;;4956160;29;20246;-44
2022/06/18 05:12:14;;;;;;;4.77;4.10;;;21.10;99.90;;;;;;4955979;29;20234;-43
2022/06/18 05:15:02;;;;;;;6.80;3.97;;;21.20;99.90;;;;;;4954770;28;20307;-47
2022/06/18 05:17:33;;;;;;;5.40;3.73;;;21.40;99.90;;;;;;4971860;28;20298;-46
2022/06/18 05:20:14;;;;;;;5.60;3.83;;;21.40;99.90;;;;;;4955732;28;20593;-45
2022/06/18 05:22:45;;;;;;;4.00;3.20;;;21.60;99.90;;;;;;4955543;28;20268;-45
2022/06/18 05:25:15;;;;;;;4.33;3.60;;;21.80;99.90;;;;;;4955538;28;20222;-44
2022/06/18 05:27:44;;;;;;;5.07;3.63;;;22.00;99.90;;;;;;4955629;28;20222;-45
2022/06/18 05:30:28;;;;;;;4.50;3.20;;;22.20;99.90;;;;;;4955560;28;20229;-44
2022/06/18 05:33:00;;;;;;;5.80;3.47;;;22.40;99.90;;;;;;4972821;28;20237;-45
2022/06/18 05:35:33;;;;;;;5.33;3.33;;;22.50;99.90;;;;;;4971581;28;20282;-44
2022/06/18 05:38:03;;;;;;;5.57;3.60;;;22.70;99.90;;;;;;4955189;29;20334;-44
2022/06/18 05:40:32;;;;;;;4.07;3.20;;;23.00;99.90;;;;;;4955299;29;20317;-45
2022/06/18 05:43:00;;;;;;;5.73;3.50;;;23.10;99.90;;;;;;4960557;28;20254;-46
2022/06/18 05:45:29;;;;;;;6.70;3.73;;;23.30;99.90;;;;;;4955316;29;20223;-46
2022/06/18 05:47:59;;;;;;;6.67;4.60;;;23.40;99.90;;;;;;4955114;28;20230;-44
2022/06/18 05:50:27;;;;;;;5.27;4.60;;;23.60;99.90;;;;;;4956870;29;20723;-44
2022/06/18 05:52:56;;;;;;;6.27;4.40;;;23.50;99.90;;;;;;4956094;29;20279;-44
2022/06/18 05:55:44;;;;;;;4.60;3.73;;;23.50;99.90;;;;;;4955394;29;20758;-44
2022/06/18 05:58:35;;;;;;;4.57;3.67;;;23.70;99.90;;;;;;4955409;28;20245;-45
2022/06/18 06:01:18;;;;;;;5.17;4.03;;;23.90;99.90;;;;;;4954300;29;20301;-45
2022/06/18 06:03:46;;;;;;;7.10;3.90;;;24.00;99.90;;;;;;4969875;28;20227;-48
2022/06/18 06:06:15;;;;;;;7.63;4.43;;;24.20;99.90;;;;;;4970889;28;20223;-45
2022/06/18 06:08:48;;;;;;;5.70;3.70;;;24.20;99.90;;;;;;4954724;29;20325;-46
2022/06/18 06:11:30;;;;;;;7.90;4.87;;;24.50;99.90;;;;;;4950952;28;20219;-45
2022/06/18 06:14:01;;;;;;;5.77;4.60;;;24.60;99.90;;;;;;4969119;28;20231;-47
2022/06/18 06:16:31;;;;;;;5.73;4.20;;;24.70;99.90;;;;;;4953308;29;20583;-46
2022/06/18 06:19:03;;;;;;;4.83;3.67;;;25.00;99.90;;;;;;4954144;29;20232;-46
2022/06/18 06:21:32;;;;;;;6.60;4.50;;;25.10;99.90;;;;;;4955732;28;20588;-48
2022/06/18 06:24:01;;;;;;;5.10;4.60;;;25.30;99.90;;;;;;4955765;28;20231;-46
2022/06/18 06:26:34;;;;;;;7.63;4.03;;;25.30;99.90;;;;;;4955676;29;20255;-46
2022/06/18 06:29:02;;;;;;;4.93;4.33;;;25.50;99.90;;;;;;4955701;29;20232;-46
2022/06/18 06:31:30;;;;;;;6.13;4.27;;;25.50;99.90;;;;;;4955995;28;20238;-46
2022/06/18 06:33:58;;;;;;;7.53;5.60;;;25.50;99.90;;;;;;4955562;29;20252;-46
2022/06/18 06:36:26;;;;;;;6.97;4.70;;;25.50;99.90;;;;;;4955563;28;20232;-46
2022/06/18 06:39:03;;;;;;;5.97;4.20;;;25.70;99.90;;;;;;4955664;28;20297;-45
2022/06/18 06:41:32;;;;;;;5.87;4.77;;;25.80;99.90;;;;;;4955678;28;20719;-46
2022/06/18 06:44:00;;;;;;;5.73;4.27;;;26.00;99.90;;;;;;4955595;28;20238;-45
2022/06/18 06:46:31;;;;;;;6.97;4.27;;;26.20;99.90;;;;;;4955426;29;20241;-45
2022/06/18 06:48:59;;;;;;;8.50;4.93;;;26.30;99.90;;;;;;4955229;29;20626;-46
2022/06/18 06:51:31;;;;;;;5.63;5.03;;;26.40;99.90;;;;;;4958078;28;20230;-46
2022/06/18 06:54:08;;;;;;;5.33;4.33;;;26.50;99.90;;;;;;4954959;28;20260;-46
2022/06/18 06:59:22;;;;;;;9.80;4.67;;;26.70;99.90;;;;;;4955312;28;20781;-46
2022/06/18 07:01:52;;;;;;;6.57;4.67;;;26.80;99.90;;;;;;4954634;28;20240;-44
2022/06/18 07:04:21;;;;;;;6.80;5.37;;;26.90;99.90;;;;;;4955174;29;20253;-46
2022/06/18 07:06:49;;;;;;;6.80;4.97;;;27.00;99.90;;;;;;4937114;29;20239;-46
2022/06/18 07:09:19;;;;;;;6.83;4.83;;;27.00;99.90;;;;;;4936200;29;20239;-45
2022/06/18 07:11:47;;;;;;;7.67;4.53;;;27.00;99.90;;;;;;4953935;29;20236;-45
2022/06/18 07:14:15;;;;;;;5.33;4.40;;;27.20;99.90;;;;;;4954969;28;20284;-46
2022/06/18 07:16:49;;;;;;;8.57;5.03;;;27.30;99.90;;;;;;4955252;29;20590;-45
2022/06/18 07:19:18;;;;;;;6.13;4.70;;;27.30;99.90;;;;;;4952893;29;20289;-45
2022/06/18 07:21:46;;;;;;;7.13;5.10;;;27.40;99.90;;;;;;4959001;28;20229;-47
2022/06/18 07:24:14;;;;;;;6.43;5.03;;;27.60;99.90;;;;;;4958354;28;20276;-46
2022/06/18 07:26:44;;;;;;;9.07;5.60;;;27.80;99.90;;;;;;4954469;29;20307;-47
2022/06/18 07:29:13;;;;;;;5.73;4.83;;;27.90;99.90;;;;;;4953810;28;20614;-47
2022/06/18 07:31:41;;;;;;;7.50;5.07;;;28.00;99.90;;;;;;4954545;28;20245;-47
2022/06/18 07:34:11;;;;;;;7.03;5.57;;;28.10;99.90;;;;;;4954807;29;20243;-46
2022/06/18 07:36:39;;;;;;;9.07;5.83;;;28.10;99.90;;;;;;4954709;29;20304;-46
2022/06/18 07:39:07;;;;;;;11.07;5.73;;;28.10;99.90;;;;;;4954678;29;20711;-46
2022/06/18 07:41:40;;;;;;;7.97;5.30;;;28.30;99.90;;;;;;4960704;28;20286;-45
2022/06/18 07:44:12;;;;;;;9.77;5.50;;;28.50;99.90;;;;;;4954471;29;20257;-46
2022/06/18 07:46:40;;;;;;;8.23;5.20;;;28.80;99.90;;;;;;4954888;28;20253;-45
2022/06/18 07:49:08;;;;;;;10.10;5.63;;;28.60;99.90;;;;;;4954503;28;20567;-46
2022/06/18 07:51:36;;;;;;;8.47;5.37;;;28.90;99.90;;;;;;4954428;28;20710;-47
2022/06/18 07:54:05;;;;;;;10.67;5.07;;;29.10;99.90;;;;;;4953802;28;20238;-46
2022/06/18 07:56:33;;;;;;;6.83;4.87;;;29.50;99.90;;;;;;4954461;28;20237;-49
2022/06/18 07:59:01;;;;;;;6.80;4.80;;;29.70;99.90;;;;;;4954012;28;20227;-46
2022/06/18 08:01:31;;;;;;;8.37;5.33;;;29.70;99.90;;;;;;4959952;28;20234;-46
2022/06/18 08:04:00;;;;;;;10.37;5.60;;;29.70;99.90;;;;;;4958269;28;20254;-45
2022/06/18 08:06:29;;;;;;;6.37;5.20;;;29.70;99.90;;;;;;4954670;28;20595;-51
2022/06/18 08:08:57;;;;;;;6.87;4.73;;;29.80;99.90;;;;;;4954507;28;20328;-46
2022/06/18 08:11:28;;;;;;;8.03;5.37;;;29.90;99.90;;;;;;4955146;28;20265;-46
2022/06/18 08:13:57;;;;;;;12.50;5.30;;;30.00;99.90;;;;;;4954246;29;20723;-46
2022/06/18 08:16:25;;;;;;;9.60;4.90;;;29.90;99.90;;;;;;4954576;28;20259;-49
2022/06/18 08:18:55;;;;;;;7.30;4.53;;;29.90;99.90;;;;;;4952970;29;20231;-48
2022/06/18 08:21:30;;;;;;;11.10;5.40;;;30.10;99.90;;;;;;4953581;29;20235;-50
2022/06/18 08:24:05;;;;;;;9.03;5.27;;;30.20;99.90;;;;;;4953908;28;20254;-45
2022/06/18 08:26:35;;;;;;;9.47;5.47;;;30.30;99.90;;;;;;4954216;29;20265;-46
2022/06/18 08:29:05;;;;;;;7.67;5.23;;;30.50;99.90;;;;;;4953809;28;20688;-46
2022/06/18 08:31:33;;;;;;;8.03;5.23;;;30.40;99.90;;;;;;4953091;28;20250;-47
2022/06/18 08:34:03;;;;;;;9.37;5.10;;;30.60;99.90;;;;;;4955995;28;20234;-47
2022/06/18 08:36:32;;;;;;;9.43;6.70;;;30.50;99.90;;;;;;4951057;28;20708;-47
2022/06/18 08:39:01;;;;;;;10.10;5.30;;;30.40;99.90;;;;;;4959149;28;20711;-46
2022/06/18 08:41:44;;;;;;;8.40;5.17;;;30.40;99.90;;;;;;4961057;28;20776;-46
2022/06/18 08:44:49;;;;;;;9.67;4.60;;;30.70;99.90;;;;;;4967262;28;20247;-47
2022/06/18 08:47:38;;;;;;;15.30;5.50;;;30.80;99.90;;;;;;4954146;28;20235;-48
2022/06/18 08:50:28;;;;;;;10.87;4.90;;;30.70;99.90;;;;;;4957671;29;20282;-46
2022/06/18 08:53:11;;;;;;;7.47;5.00;;;30.30;99.90;;;;;;4957449;29;20712;-47
2022/06/18 08:55:49;;;;;;;6.83;5.20;;;29.90;99.90;;;;;;4957823;29;20270;-47
2022/06/18 08:58:24;;;;;;;8.53;4.43;;;30.10;99.90;;;;;;4966167;28;20686;-46
2022/06/18 09:00:58;;;;;;;10.93;5.70;;;30.50;99.90;;;;;;4957431;28;20238;-47
2022/06/18 09:03:34;;;;;;;9.60;4.97;;;30.10;99.90;;;;;;4957033;28;20330;-47
2022/06/18 09:06:18;;;;;;;8.63;4.87;;;30.10;99.90;;;;;;4957184;29;20713;-47
2022/06/18 09:09:01;;;;;;;7.27;4.50;;;30.10;99.90;;;;;;4958594;28;20261;-46
2022/06/18 09:11:45;;;;;;;8.43;4.87;;;30.00;99.90;;;;;;4957282;28;20235;-47
2022/06/18 09:14:18;;;;;;;8.10;4.27;;;30.40;99.90;;;;;;4957073;28;20235;-46
2022/06/18 09:16:53;;;;;;;8.23;4.23;;;30.70;99.90;;;;;;4957212;28;20707;-46
2022/06/18 09:19:24;;;;;;;8.93;4.23;;;30.90;99.90;;;;;;4957365;29;20639;-46
2022/06/18 09:21:56;;;;;;;10.80;4.70;;;31.10;99.90;;;;;;4956837;28;20269;-46
2022/06/18 09:24:32;;;;;;;9.43;4.97;;;31.00;99.90;;;;;;4957226;28;20235;-46
2022/06/18 09:27:05;;;;;;;8.27;4.23;;;31.00;99.90;;;;;;4956771;28;20247;-48
2022/06/18 09:29:43;;;;;;;7.70;3.77;;;31.10;99.90;;;;;;4956329;28;20278;-45
2022/06/18 09:32:16;;;;;;;6.97;3.77;;;31.70;99.90;;;;;;4956043;28;20236;-49
2022/06/18 09:34:50;;;;;;;7.33;3.80;;;31.70;99.90;;;;;;4956909;28;20229;-46
2022/06/18 09:37:27;;;;;;;7.20;3.47;;;31.80;99.90;;;;;;4955655;29;20237;-48
2022/06/18 09:39:59;;;;;;;6.97;3.97;;;32.00;99.90;;;;;;4955970;29;20244;-47
2022/06/18 09:42:34;;;;;;;7.97;4.30;;;32.00;99.90;;;;;;4956793;28;20710;-49
2022/06/18 09:45:07;;;;;;;6.60;4.50;;;31.70;99.90;;;;;;4956222;28;20706;-48
2022/06/18 09:47:39;;;;;;;10.80;4.40;;;31.70;99.90;;;;;;4956849;29;20236;-46
2022/06/18 09:50:14;;;;;;;7.43;3.87;;;31.00;99.90;;;;;;4956631;29;20237;-48
2022/06/18 09:52:48;;;;;;;7.83;3.40;;;31.20;99.90;;;;;;4955895;28;20266;-47
2022/06/18 09:55:21;;;;;;;5.93;2.90;;;31.70;99.90;;;;;;4956051;28;20307;-50
2022/06/18 09:57:53;;;;;;;7.50;3.57;;;31.70;99.90;;;;;;4955396;28;20226;-49
2022/06/18 10:00:25;;;;;;;8.43;3.43;;;32.00;99.90;;;;;;4963952;28;20627;-47
2022/06/18 10:02:57;;;;;;;7.27;3.30;;;31.80;99.90;;;;;;4961974;28;20267;-48
2022/06/18 10:08:16;;;;;;;9.13;3.67;;;32.20;99.90;;;;;;4956096;29;20697;-50
2022/06/18 10:10:52;;;;;;;10.80;3.60;;;32.20;99.90;;;;;;4955860;28;20708;-46
2022/06/18 10:13:24;;;;;;;23.53;5.10;;;32.20;99.90;;;;;;4954692;28;20229;-47
2022/06/18 10:15:57;;;;;;;17.47;4.20;;;32.10;99.90;;;;;;4955449;29;20231;-48
2022/06/18 10:18:46;;;;;;;24.10;5.40;;;32.50;99.90;;;;;;4955994;28;20231;-47
2022/06/18 10:21:20;;;;;;;21.53;5.40;;;32.80;99.90;;;;;;4956142;29;20230;-48
2022/06/18 10:23:56;;;;;;;14.70;4.23;;;32.80;99.90;;;;;;4956175;28;20239;-47
2022/06/18 10:26:36;;;;;;;11.70;4.00;;;32.90;99.90;;;;;;4954718;28;20239;-49
2022/06/18 10:29:15;;;;;;;8.03;3.97;;;33.10;99.90;;;;;;4955442;29;20234;-47
2022/06/18 10:31:56;;;;;;;7.60;3.83;;;32.30;99.90;;;;;;4954903;28;20231;-48
2022/06/18 10:34:44;;;;;;;5.70;3.00;;;32.80;99.90;;;;;;4955571;29;20270;-47
2022/06/18 10:37:22;;;;;;;7.87;3.93;;;33.00;99.90;;;;;;4953223;28;20739;-48
2022/06/18 10:40:25;;;;;;;9.63;3.43;;;32.50;99.90;;;;;;4953639;29;20577;-48
2022/06/18 10:43:13;;;;;;;8.30;4.10;;;32.20;99.90;;;;;;4953476;29;20730;-47
2022/06/18 10:45:47;;;;;;;9.33;3.20;;;31.50;99.90;;;;;;4947119;29;20225;-49
2022/06/18 10:48:20;;;;;;;5.57;3.40;;;31.10;99.90;;;;;;4951921;29;20286;-48
2022/06/18 10:50:51;;;;;;;7.20;3.10;;;31.20;99.90;;;;;;4955007;29;20228;-48
2022/06/18 10:53:22;;;;;;;6.50;3.10;;;31.10;99.90;;;;;;4954531;28;20260;-47
2022/06/18 10:56:01;;;;;;;8.33;3.13;;;31.80;99.90;;;;;;4955307;28;20292;-49
2022/06/18 10:58:31;;;;;;;4.50;2.30;;;32.00;99.90;;;;;;4954749;29;20721;-47
2022/06/18 11:01:04;;;;;;;5.80;2.53;;;32.70;99.90;;;;;;4954721;29;20705;-47
2022/06/18 11:03:34;;;;;;;5.80;2.30;;;32.30;99.90;;;;;;4958717;28;20243;-46
2022/06/18 11:06:09;;;;;;;4.37;2.13;;;32.00;99.90;;;;;;4955131;29;20230;-46
2022/06/18 11:08:39;;;;;;;2.97;1.70;;;32.30;99.90;;;;;;4955074;29;20229;-49
2022/06/18 11:11:14;;;;;;;2.83;1.90;;;32.20;99.90;;;;;;4955032;28;20690;-48
2022/06/18 11:13:44;;;;;;;3.90;1.63;;;32.00;99.90;;;;;;4947594;29;20227;-48
2022/06/18 11:16:16;;;;;;;4.13;2.03;;;32.30;99.90;;;;;;4958463;28;20232;-48
2022/06/18 11:18:51;;;;;;;4.10;1.60;;;32.50;99.90;;;;;;4947717;29;20232;-49
2022/06/18 11:21:29;;;;;;;4.20;1.60;;;32.30;99.90;;;;;;4954600;28;20695;-49
2022/06/18 11:24:02;;;;;;;3.60;1.20;;;31.80;99.90;;;;;;4959570;28;20261;-48
2022/06/18 11:26:43;;;;;;;2.60;1.20;;;31.00;99.90;;;;;;4959821;28;20227;-48
2022/06/18 11:29:19;;;;;;;2.73;1.37;;;31.00;99.90;;;;;;4954456;29;20234;-50
2022/06/18 11:31:53;;;;;;;3.93;1.30;;;31.40;99.90;;;;;;4954659;28;20588;-47
2022/06/18 11:34:26;;;;;;;3.17;1.20;;;31.70;99.90;;;;;;4954543;29;20242;-47
2022/06/18 11:36:57;;;;;;;3.23;1.30;;;31.80;99.90;;;;;;4954830;29;20711;-47
2022/06/18 11:39:30;;;;;;;2.00;1.00;;;31.50;99.90;;;;;;4954838;29;20251;-48
2022/06/18 11:42:05;;;;;;;2.03;1.00;;;31.40;99.90;;;;;;4949047;29;20775;-47
2022/06/18 11:44:39;;;;;;;2.63;1.10;;;31.50;99.90;;;;;;4957005;28;20233;-47
2022/06/18 11:47:13;;;;;;;2.93;0.97;;;31.40;99.90;;;;;;4965835;28;20233;-47
2022/06/18 11:49:48;;;;;;;1.63;1.13;;;31.50;99.90;;;;;;4947005;29;20706;-50
2022/06/18 11:52:23;;;;;;;2.60;1.07;;;31.90;99.90;;;;;;4939059;29;20242;-50
2022/06/18 11:55:01;;;;;;;0.83;0.70;;;32.00;99.90;;;;;;4954530;28;20241;-46
2022/06/18 11:57:36;;;;;;;3.97;1.20;;;32.00;99.90;;;;;;4954655;29;20705;-48
2022/06/18 12:00:11;;;;;;;2.67;1.00;;;31.60;99.90;;;;;;4954364;28;20690;-49
2022/06/18 12:02:48;;;;;;;2.70;1.10;;;31.40;99.90;;;;;;4953843;28;20721;-47
2022/06/18 12:05:22;;;;;;;1.33;0.83;;;31.00;99.90;;;;;;4954642;29;20230;-46
2022/06/18 12:07:54;;;;;;;1.30;0.90;;;30.90;99.90;;;;;;4954311;28;20231;-47
2022/06/18 12:10:31;;;;;;;1.47;0.90;;;30.80;99.90;;;;;;4954488;29;20266;-47
2022/06/18 12:13:08;;;;;;;0.80;0.80;;;30.50;99.90;;;;;;4959864;28;20295;-47
2022/06/18 12:15:43;;;;;;;0.90;0.80;;;30.50;99.90;;;;;;4955468;28;20771;-46
2022/06/18 12:18:19;;;;;;;3.03;0.80;;;30.20;99.90;;;;;;4958500;29;20710;-47
2022/06/18 12:20:59;;;;;;;1.70;1.00;;;29.90;99.90;;;;;;4956188;29;20277;-47
2022/06/18 12:23:36;;;;;;;2.63;1.00;;;29.80;99.90;;;;;;4955126;29;20290;-47
2022/06/18 12:26:12;;;;;;;2.27;1.10;;;29.30;99.90;;;;;;4954263;29;20742;-48
2022/06/18 12:28:57;;;;;;;2.87;0.90;;;29.30;99.90;;;;;;4957825;29;20224;-47
2022/06/18 12:31:30;;;;;;;1.80;0.80;;;29.00;99.90;;;;;;4956853;29;20229;-48
2022/06/18 12:34:05;;;;;;;2.20;0.90;;;28.60;99.90;;;;;;4954057;29;20236;-47
2022/06/18 12:36:41;;;;;;;1.87;1.10;;;28.70;99.90;;;;;;4956217;29;20727;-48
2022/06/18 12:39:18;;;;;;;1.70;0.90;;;29.10;99.90;;;;;;4957410;29;20220;-49
2022/06/18 12:41:55;;;;;;;13.53;1.10;;;29.00;99.90;;;;;;4957632;28;20319;-48
2022/06/18 12:44:37;;;;;;;2.17;1.20;;;28.90;99.90;;;;;;4957178;29;20279;-49
2022/06/18 12:47:13;;;;;;;4.33;1.00;;;28.80;99.90;;;;;;4957695;28;20223;-47
2022/06/18 12:49:52;;;;;;;2.10;0.80;;;28.80;99.90;;;;;;4957957;28;20231;-47
2022/06/18 12:52:30;;;;;;;1.80;0.87;;;28.50;99.90;;;;;;4957850;29;20694;-47
2022/06/18 12:55:09;;;;;;;4.13;1.30;;;28.30;99.90;;;;;;4957447;29;20240;-46
2022/06/18 12:57:52;;;;;;;2.93;1.20;;;28.50;99.90;;;;;;4957324;29;20227;-48
2022/06/18 13:00:29;;;;;;;1.60;1.10;;;28.60;99.90;;;;;;4957414;29;20582;-50
2022/06/18 13:03:23;;;;;;;2.73;1.03;;;28.20;99.90;;;;;;4955240;28;20242;-48
2022/06/18 13:05:56;;;;;;;2.77;1.20;;;28.30;99.90;;;;;;4949721;29;20232;-49
2022/06/18 13:08:38;;;;;;;3.13;1.10;;;28.50;99.90;;;;;;4953856;29;20779;-47
2022/06/18 13:11:15;;;;;;;1.93;1.10;;;28.30;99.90;;;;;;4955090;28;20234;-47
2022/06/18 13:13:58;;;;;;;2.13;1.00;;;28.30;99.90;;;;;;4957081;28;20706;-47
2022/06/18 13:16:33;;;;;;;2.50;1.07;;;27.90;99.90;;;;;;4957053;28;20726;-48
2022/06/18 13:19:07;;;;;;;3.03;1.10;;;27.90;99.90;;;;;;4957306;28;20262;-45
2022/06/18 13:21:35;;;;;;;1.97;1.10;;;27.90;99.90;;;;;;4962734;28;20741;-48
2022/06/18 13:29:51;;;;;;;4.00;1.40;;;27.40;99.90;;;;;;4949384;29;20267;-47
2022/06/18 13:32:28;;;;;;;2.93;1.30;;;27.00;99.90;;;;;;4956533;28;20698;-47
2022/06/18 13:35:07;;;;;;;2.07;0.93;;;26.90;99.90;;;;;;4956978;28;20235;-47